sensor_id;sensor_type;location;lat;lon;timestamp;P1;durP1;ratioP1;P2;durP2;ratioP2
33902;SDS011;20194;50.950;5.346;2023-10-31T00:02:15;9.13;;;3.42;;
33902;SDS011;20194;50.950;5.346;2023-10-31T00:04:41;9.10;;;3.97;;
33902;SDS011;20194;50.950;5.346;2023-10-31T00:07:07;10.68;;;4.00;;
33902;SDS011;20194;50.950;5.346;2023-10-31T00:09:33;8.45;;;3.78;;
33902;SDS011;20194;50.950;5.346;2023-10-31T00:11:59;11.25;;;4.20;;
33902;SDS011;20194;50.950;5.346;2023-10-31T00:14:25;10.65;;;4.10;;
33902;SDS011;20194;50.950;5.346;2023-10-31T00:16:54;9.45;;;4.75;;
33902;SDS011;20194;50.950;5.346;2023-10-31T00:19:19;8.98;;;4.45;;
33902;SDS011;20194;50.950;5.346;2023-10-31T00:21:46;7.38;;;4.10;;
33902;SDS011;20194;50.950;5.346;2023-10-31T00:24:11;7.03;;;4.57;;
33902;SDS011;20194;50.950;5.346;2023-10-31T00:26:37;8.48;;;4.82;;
33902;SDS011;20194;50.950;5.346;2023-10-31T00:29:03;12.27;;;4.40;;
33902;SDS011;20194;50.950;5.346;2023-10-31T00:31:31;15.85;;;5.05;;
33902;SDS011;20194;50.950;5.346;2023-10-31T00:33:59;11.82;;;5.28;;
33902;SDS011;20194;50.950;5.346;2023-10-31T00:36:26;16.92;;;6.43;;
33902;SDS011;20194;50.950;5.346;2023-10-31T00:38:52;12.20;;;6.05;;
33902;SDS011;20194;50.950;5.346;2023-10-31T00:41:18;21.30;;;8.38;;
33902;SDS011;20194;50.950;5.346;2023-10-31T00:43:43;21.38;;;8.30;;
33902;SDS011;20194;50.950;5.346;2023-10-31T00:46:09;21.58;;;9.18;;
33902;SDS011;20194;50.950;5.346;2023-10-31T00:48:35;28.50;;;10.73;;
33902;SDS011;20194;50.950;5.346;2023-10-31T00:51:04;32.25;;;11.93;;
33902;SDS011;20194;50.950;5.346;2023-10-31T00:53:31;30.15;;;11.75;;
33902;SDS011;20194;50.950;5.346;2023-10-31T00:55:57;36.13;;;12.63;;
33902;SDS011;20194;50.950;5.346;2023-10-31T00:58:23;27.65;;;11.90;;
33902;SDS011;20194;50.950;5.346;2023-10-31T01:00:49;28.33;;;12.23;;
33902;SDS011;20194;50.950;5.346;2023-10-31T01:03:15;31.48;;;11.52;;
33902;SDS011;20194;50.950;5.346;2023-10-31T01:05:41;29.33;;;12.50;;
33902;SDS011;20194;50.950;5.346;2023-10-31T01:08:06;32.53;;;12.00;;
33902;SDS011;20194;50.950;5.346;2023-10-31T01:10:32;30.30;;;11.48;;
33902;SDS011;20194;50.950;5.346;2023-10-31T01:12:58;32.83;;;12.23;;
33902;SDS011;20194;50.950;5.346;2023-10-31T01:15:24;27.60;;;11.52;;
33902;SDS011;20194;50.950;5.346;2023-10-31T01:17:49;28.35;;;11.68;;
33902;SDS011;20194;50.950;5.346;2023-10-31T01:20:15;29.92;;;12.20;;
33902;SDS011;20194;50.950;5.346;2023-10-31T01:22:41;25.73;;;11.50;;
33902;SDS011;20194;50.950;5.346;2023-10-31T01:25:06;26.75;;;11.45;;
33902;SDS011;20194;50.950;5.346;2023-10-31T01:27:32;23.40;;;11.25;;
33902;SDS011;20194;50.950;5.346;2023-10-31T01:29:58;25.23;;;10.57;;
33902;SDS011;20194;50.950;5.346;2023-10-31T01:32:23;20.30;;;10.98;;
33902;SDS011;20194;50.950;5.346;2023-10-31T01:34:50;25.40;;;11.63;;
33902;SDS011;20194;50.950;5.346;2023-10-31T01:37:16;22.30;;;10.50;;
33902;SDS011;20194;50.950;5.346;2023-10-31T01:39:44;18.63;;;10.02;;
33902;SDS011;20194;50.950;5.346;2023-10-31T01:42:11;17.88;;;9.07;;
33902;SDS011;20194;50.950;5.346;2023-10-31T01:44:39;19.58;;;10.10;;
33902;SDS011;20194;50.950;5.346;2023-10-31T01:47:05;18.92;;;8.75;;
33902;SDS011;20194;50.950;5.346;2023-10-31T01:49:30;17.35;;;8.95;;
33902;SDS011;20194;50.950;5.346;2023-10-31T01:51:58;15.73;;;8.23;;
33902;SDS011;20194;50.950;5.346;2023-10-31T01:54:25;18.80;;;8.38;;
33902;SDS011;20194;50.950;5.346;2023-10-31T01:56:51;14.50;;;7.55;;
33902;SDS011;20194;50.950;5.346;2023-10-31T01:59:21;15.30;;;6.90;;
33902;SDS011;20194;50.950;5.346;2023-10-31T02:01:47;11.70;;;6.50;;
33902;SDS011;20194;50.950;5.346;2023-10-31T02:04:14;10.32;;;5.43;;
33902;SDS011;20194;50.950;5.346;2023-10-31T02:06:40;13.57;;;6.82;;
33902;SDS011;20194;50.950;5.346;2023-10-31T02:09:06;9.32;;;5.60;;
33902;SDS011;20194;50.950;5.346;2023-10-31T02:11:32;8.40;;;4.65;;
33902;SDS011;20194;50.950;5.346;2023-10-31T02:13:58;8.15;;;4.68;;
33902;SDS011;20194;50.950;5.346;2023-10-31T02:16:23;9.93;;;4.88;;
33902;SDS011;20194;50.950;5.346;2023-10-31T02:18:50;6.72;;;4.40;;
33902;SDS011;20194;50.950;5.346;2023-10-31T02:21:16;7.10;;;3.85;;
33902;SDS011;20194;50.950;5.346;2023-10-31T02:23:55;6.25;;;3.72;;
33902;SDS011;20194;50.950;5.346;2023-10-31T02:26:28;7.55;;;3.60;;
33902;SDS011;20194;50.950;5.346;2023-10-31T02:28:55;8.90;;;3.40;;
33902;SDS011;20194;50.950;5.346;2023-10-31T02:31:20;6.72;;;3.40;;
33902;SDS011;20194;50.950;5.346;2023-10-31T02:33:46;4.93;;;3.30;;
33902;SDS011;20194;50.950;5.346;2023-10-31T02:36:12;10.75;;;4.00;;
33902;SDS011;20194;50.950;5.346;2023-10-31T02:38:38;6.20;;;3.80;;
33902;SDS011;20194;50.950;5.346;2023-10-31T02:41:04;5.78;;;4.00;;
33902;SDS011;20194;50.950;5.346;2023-10-31T02:43:29;10.32;;;5.20;;
33902;SDS011;20194;50.950;5.346;2023-10-31T02:45:55;7.28;;;4.40;;
33902;SDS011;20194;50.950;5.346;2023-10-31T02:48:21;8.40;;;5.30;;
33902;SDS011;20194;50.950;5.346;2023-10-31T02:50:46;7.32;;;5.00;;
33902;SDS011;20194;50.950;5.346;2023-10-31T02:53:12;7.93;;;4.60;;
33902;SDS011;20194;50.950;5.346;2023-10-31T02:55:38;6.40;;;4.72;;
33902;SDS011;20194;50.950;5.346;2023-10-31T02:58:04;6.22;;;4.38;;
33902;SDS011;20194;50.950;5.346;2023-10-31T03:00:29;6.82;;;4.70;;
33902;SDS011;20194;50.950;5.346;2023-10-31T03:02:55;8.40;;;4.72;;
33902;SDS011;20194;50.950;5.346;2023-10-31T03:05:21;6.25;;;4.35;;
33902;SDS011;20194;50.950;5.346;2023-10-31T03:07:46;5.68;;;4.95;;
33902;SDS011;20194;50.950;5.346;2023-10-31T03:10:12;6.45;;;4.70;;
33902;SDS011;20194;50.950;5.346;2023-10-31T03:12:38;6.97;;;4.70;;
33902;SDS011;20194;50.950;5.346;2023-10-31T03:15:03;5.95;;;4.90;;
33902;SDS011;20194;50.950;5.346;2023-10-31T03:17:29;6.93;;;4.57;;
33902;SDS011;20194;50.950;5.346;2023-10-31T03:19:55;6.45;;;5.22;;
33902;SDS011;20194;50.950;5.346;2023-10-31T03:22:21;5.45;;;4.57;;
33902;SDS011;20194;50.950;5.346;2023-10-31T03:24:46;6.15;;;4.85;;
33902;SDS011;20194;50.950;5.346;2023-10-31T03:27:12;13.52;;;4.95;;
33902;SDS011;20194;50.950;5.346;2023-10-31T03:29:38;5.25;;;4.50;;
33902;SDS011;20194;50.950;5.346;2023-10-31T03:32:03;7.57;;;4.90;;
33902;SDS011;20194;50.950;5.346;2023-10-31T03:34:30;7.30;;;4.90;;
33902;SDS011;20194;50.950;5.346;2023-10-31T03:36:56;9.80;;;5.63;;
33902;SDS011;20194;50.950;5.346;2023-10-31T03:39:21;9.18;;;5.80;;
33902;SDS011;20194;50.950;5.346;2023-10-31T03:41:48;13.70;;;6.40;;
33902;SDS011;20194;50.950;5.346;2023-10-31T03:44:13;11.18;;;5.85;;
33902;SDS011;20194;50.950;5.346;2023-10-31T03:46:39;10.23;;;5.80;;
33902;SDS011;20194;50.950;5.346;2023-10-31T03:49:05;7.85;;;6.07;;
33902;SDS011;20194;50.950;5.346;2023-10-31T03:51:32;9.10;;;5.53;;
33902;SDS011;20194;50.950;5.346;2023-10-31T03:53:59;10.25;;;5.80;;
33902;SDS011;20194;50.950;5.346;2023-10-31T03:56:24;7.93;;;5.45;;
33902;SDS011;20194;50.950;5.346;2023-10-31T03:58:50;9.63;;;6.07;;
33902;SDS011;20194;50.950;5.346;2023-10-31T04:01:16;10.23;;;5.95;;
33902;SDS011;20194;50.950;5.346;2023-10-31T04:03:41;7.43;;;5.80;;
33902;SDS011;20194;50.950;5.346;2023-10-31T04:06:08;9.85;;;6.38;;
33902;SDS011;20194;50.950;5.346;2023-10-31T04:08:33;8.65;;;5.43;;
33902;SDS011;20194;50.950;5.346;2023-10-31T04:10:59;9.30;;;6.38;;
33902;SDS011;20194;50.950;5.346;2023-10-31T04:13:25;7.45;;;5.45;;
33902;SDS011;20194;50.950;5.346;2023-10-31T04:15:51;11.32;;;5.63;;
33902;SDS011;20194;50.950;5.346;2023-10-31T04:18:17;6.93;;;4.82;;
33902;SDS011;20194;50.950;5.346;2023-10-31T04:20:42;8.60;;;5.60;;
33902;SDS011;20194;50.950;5.346;2023-10-31T04:23:09;9.40;;;5.30;;
33902;SDS011;20194;50.950;5.346;2023-10-31T04:25:35;7.53;;;5.22;;
33902;SDS011;20194;50.950;5.346;2023-10-31T04:28:00;9.68;;;5.35;;
33902;SDS011;20194;50.950;5.346;2023-10-31T04:30:26;7.03;;;5.00;;
33902;SDS011;20194;50.950;5.346;2023-10-31T04:32:53;7.07;;;4.93;;
33902;SDS011;20194;50.950;5.346;2023-10-31T04:35:18;5.15;;;4.35;;
33902;SDS011;20194;50.950;5.346;2023-10-31T04:37:44;10.05;;;4.85;;
33902;SDS011;20194;50.950;5.346;2023-10-31T04:40:09;7.78;;;5.15;;
33902;SDS011;20194;50.950;5.346;2023-10-31T04:42:38;7.80;;;4.95;;
33902;SDS011;20194;50.950;5.346;2023-10-31T04:45:04;7.60;;;5.25;;
33902;SDS011;20194;50.950;5.346;2023-10-31T04:47:31;9.77;;;4.78;;
33902;SDS011;20194;50.950;5.346;2023-10-31T04:49:56;5.43;;;4.15;;
33902;SDS011;20194;50.950;5.346;2023-10-31T04:52:22;5.30;;;4.43;;
33902;SDS011;20194;50.950;5.346;2023-10-31T04:54:51;5.28;;;4.03;;
33902;SDS011;20194;50.950;5.346;2023-10-31T04:57:16;8.10;;;4.65;;
33902;SDS011;20194;50.950;5.346;2023-10-31T04:59:42;7.88;;;4.30;;
33902;SDS011;20194;50.950;5.346;2023-10-31T05:02:09;4.32;;;3.72;;
33902;SDS011;20194;50.950;5.346;2023-10-31T05:04:38;6.28;;;4.75;;
33902;SDS011;20194;50.950;5.346;2023-10-31T05:07:05;5.32;;;3.38;;
33902;SDS011;20194;50.950;5.346;2023-10-31T05:09:31;5.22;;;4.28;;
33902;SDS011;20194;50.950;5.346;2023-10-31T05:11:56;8.25;;;4.30;;
33902;SDS011;20194;50.950;5.346;2023-10-31T05:14:22;4.78;;;3.65;;
33902;SDS011;20194;50.950;5.346;2023-10-31T05:16:48;5.57;;;4.13;;
33902;SDS011;20194;50.950;5.346;2023-10-31T05:19:13;9.20;;;3.95;;
33902;SDS011;20194;50.950;5.346;2023-10-31T05:21:39;11.57;;;4.28;;
33902;SDS011;20194;50.950;5.346;2023-10-31T05:24:05;9.50;;;4.72;;
33902;SDS011;20194;50.950;5.346;2023-10-31T05:26:31;6.50;;;4.75;;
33902;SDS011;20194;50.950;5.346;2023-10-31T05:28:57;6.78;;;4.88;;
33902;SDS011;20194;50.950;5.346;2023-10-31T05:31:23;8.85;;;5.32;;
33902;SDS011;20194;50.950;5.346;2023-10-31T05:33:50;6.85;;;5.30;;
33902;SDS011;20194;50.950;5.346;2023-10-31T05:36:18;6.60;;;4.75;;
33902;SDS011;20194;50.950;5.346;2023-10-31T05:38:45;9.13;;;5.43;;
33902;SDS011;20194;50.950;5.346;2023-10-31T05:41:11;6.60;;;5.35;;
33902;SDS011;20194;50.950;5.346;2023-10-31T05:43:36;8.43;;;5.03;;
33902;SDS011;20194;50.950;5.346;2023-10-31T05:46:02;6.72;;;5.35;;
33902;SDS011;20194;50.950;5.346;2023-10-31T05:48:28;8.00;;;5.32;;
33902;SDS011;20194;50.950;5.346;2023-10-31T05:50:55;7.18;;;5.03;;
33902;SDS011;20194;50.950;5.346;2023-10-31T05:53:21;8.45;;;6.47;;
33902;SDS011;20194;50.950;5.346;2023-10-31T05:55:46;7.30;;;5.53;;
33902;SDS011;20194;50.950;5.346;2023-10-31T05:58:12;8.63;;;5.65;;
33902;SDS011;20194;50.950;5.346;2023-10-31T06:00:38;10.15;;;5.63;;
33902;SDS011;20194;50.950;5.346;2023-10-31T06:03:05;11.07;;;6.60;;
33902;SDS011;20194;50.950;5.346;2023-10-31T06:05:31;9.95;;;6.38;;
33902;SDS011;20194;50.950;5.346;2023-10-31T06:07:56;12.30;;;5.95;;
33902;SDS011;20194;50.950;5.346;2023-10-31T06:10:22;11.73;;;6.32;;
33902;SDS011;20194;50.950;5.346;2023-10-31T06:12:48;9.23;;;6.18;;
33902;SDS011;20194;50.950;5.346;2023-10-31T06:15:14;10.20;;;6.28;;
33902;SDS011;20194;50.950;5.346;2023-10-31T06:17:40;7.88;;;5.95;;
33902;SDS011;20194;50.950;5.346;2023-10-31T06:20:09;10.05;;;5.68;;
33902;SDS011;20194;50.950;5.346;2023-10-31T06:22:39;7.07;;;5.63;;
33902;SDS011;20194;50.950;5.346;2023-10-31T06:25:05;9.45;;;6.75;;
33902;SDS011;20194;50.950;5.346;2023-10-31T06:27:31;8.13;;;5.80;;
33902;SDS011;20194;50.950;5.346;2023-10-31T06:29:56;9.32;;;6.00;;
33902;SDS011;20194;50.950;5.346;2023-10-31T06:32:22;8.75;;;6.53;;
33902;SDS011;20194;50.950;5.346;2023-10-31T06:34:47;11.70;;;6.88;;
33902;SDS011;20194;50.950;5.346;2023-10-31T06:37:13;10.73;;;6.43;;
33902;SDS011;20194;50.950;5.346;2023-10-31T06:39:39;9.18;;;6.35;;
33902;SDS011;20194;50.950;5.346;2023-10-31T06:42:04;10.43;;;6.63;;
33902;SDS011;20194;50.950;5.346;2023-10-31T06:44:30;8.20;;;6.75;;
33902;SDS011;20194;50.950;5.346;2023-10-31T06:46:56;10.48;;;7.05;;
33902;SDS011;20194;50.950;5.346;2023-10-31T06:49:21;10.73;;;7.60;;
33902;SDS011;20194;50.950;5.346;2023-10-31T06:51:49;13.45;;;7.63;;
33902;SDS011;20194;50.950;5.346;2023-10-31T06:54:15;9.80;;;7.43;;
33902;SDS011;20194;50.950;5.346;2023-10-31T06:56:40;12.25;;;8.38;;
33902;SDS011;20194;50.950;5.346;2023-10-31T06:59:06;11.55;;;7.38;;
33902;SDS011;20194;50.950;5.346;2023-10-31T07:01:34;16.40;;;6.60;;
33902;SDS011;20194;50.950;5.346;2023-10-31T07:03:59;12.75;;;7.70;;
33902;SDS011;20194;50.950;5.346;2023-10-31T07:06:25;10.75;;;6.63;;
33902;SDS011;20194;50.950;5.346;2023-10-31T07:08:51;10.05;;;6.53;;
33902;SDS011;20194;50.950;5.346;2023-10-31T07:11:17;8.35;;;6.63;;
33902;SDS011;20194;50.950;5.346;2023-10-31T07:13:42;13.50;;;7.15;;
33902;SDS011;20194;50.950;5.346;2023-10-31T07:16:09;10.50;;;6.43;;
33902;SDS011;20194;50.950;5.346;2023-10-31T07:18:35;11.95;;;7.00;;
33902;SDS011;20194;50.950;5.346;2023-10-31T07:21:00;11.10;;;7.07;;
33902;SDS011;20194;50.950;5.346;2023-10-31T07:23:26;11.23;;;7.88;;
33902;SDS011;20194;50.950;5.346;2023-10-31T07:25:52;14.95;;;7.43;;
33902;SDS011;20194;50.950;5.346;2023-10-31T07:28:17;11.98;;;8.30;;
33902;SDS011;20194;50.950;5.346;2023-10-31T07:30:43;14.05;;;7.85;;
33902;SDS011;20194;50.950;5.346;2023-10-31T07:33:09;13.15;;;8.27;;
33902;SDS011;20194;50.950;5.346;2023-10-31T07:35:35;9.43;;;7.55;;
33902;SDS011;20194;50.950;5.346;2023-10-31T07:38:02;14.25;;;7.07;;
33902;SDS011;20194;50.950;5.346;2023-10-31T07:40:28;12.27;;;7.63;;
33902;SDS011;20194;50.950;5.346;2023-10-31T07:42:54;13.60;;;7.57;;
33902;SDS011;20194;50.950;5.346;2023-10-31T07:45:20;10.30;;;6.75;;
33902;SDS011;20194;50.950;5.346;2023-10-31T07:47:46;10.07;;;6.75;;
33902;SDS011;20194;50.950;5.346;2023-10-31T07:50:11;9.50;;;6.43;;
33902;SDS011;20194;50.950;5.346;2023-10-31T07:52:38;12.13;;;6.60;;
33902;SDS011;20194;50.950;5.346;2023-10-31T07:55:04;14.05;;;7.15;;
33902;SDS011;20194;50.950;5.346;2023-10-31T07:57:30;11.38;;;5.85;;
33902;SDS011;20194;50.950;5.346;2023-10-31T07:59:55;13.82;;;7.07;;
33902;SDS011;20194;50.950;5.346;2023-10-31T08:02:21;8.93;;;6.53;;
33902;SDS011;20194;50.950;5.346;2023-10-31T08:04:47;11.73;;;7.00;;
33902;SDS011;20194;50.950;5.346;2023-10-31T08:07:12;9.68;;;6.05;;
33902;SDS011;20194;50.950;5.346;2023-10-31T08:09:38;11.18;;;6.35;;
33902;SDS011;20194;50.950;5.346;2023-10-31T08:12:04;12.40;;;6.55;;
33902;SDS011;20194;50.950;5.346;2023-10-31T08:14:30;10.75;;;6.13;;
33902;SDS011;20194;50.950;5.346;2023-10-31T08:16:56;9.73;;;5.53;;
33902;SDS011;20194;50.950;5.346;2023-10-31T08:19:21;11.35;;;5.93;;
33902;SDS011;20194;50.950;5.346;2023-10-31T08:21:48;9.85;;;5.90;;
33902;SDS011;20194;50.950;5.346;2023-10-31T08:24:14;9.30;;;5.70;;
33902;SDS011;20194;50.950;5.346;2023-10-31T08:26:40;18.83;;;8.25;;
33902;SDS011;20194;50.950;5.346;2023-10-31T08:29:05;9.20;;;5.85;;
33902;SDS011;20194;50.950;5.346;2023-10-31T08:31:31;11.90;;;6.35;;
33902;SDS011;20194;50.950;5.346;2023-10-31T08:33:57;10.80;;;6.07;;
33902;SDS011;20194;50.950;5.346;2023-10-31T08:36:23;10.30;;;6.78;;
33902;SDS011;20194;50.950;5.346;2023-10-31T08:38:48;10.20;;;5.45;;
33902;SDS011;20194;50.950;5.346;2023-10-31T08:41:14;10.63;;;5.82;;
33902;SDS011;20194;50.950;5.346;2023-10-31T08:43:45;14.70;;;6.55;;
33902;SDS011;20194;50.950;5.346;2023-10-31T08:46:11;10.57;;;6.00;;
33902;SDS011;20194;50.950;5.346;2023-10-31T08:48:37;11.52;;;5.75;;
33902;SDS011;20194;50.950;5.346;2023-10-31T08:51:03;15.10;;;5.55;;
33902;SDS011;20194;50.950;5.346;2023-10-31T08:53:30;9.85;;;4.75;;
33902;SDS011;20194;50.950;5.346;2023-10-31T08:55:55;9.48;;;4.82;;
33902;SDS011;20194;50.950;5.346;2023-10-31T08:58:21;6.65;;;5.00;;
33902;SDS011;20194;50.950;5.346;2023-10-31T09:00:47;9.63;;;4.97;;
33902;SDS011;20194;50.950;5.346;2023-10-31T09:03:13;10.65;;;4.82;;
33902;SDS011;20194;50.950;5.346;2023-10-31T09:05:39;7.78;;;5.07;;
33902;SDS011;20194;50.950;5.346;2023-10-31T09:08:05;9.02;;;5.03;;
33902;SDS011;20194;50.950;5.346;2023-10-31T09:10:32;8.77;;;5.03;;
33902;SDS011;20194;50.950;5.346;2023-10-31T09:12:58;10.50;;;5.70;;
33902;SDS011;20194;50.950;5.346;2023-10-31T09:15:24;12.93;;;5.45;;
33902;SDS011;20194;50.950;5.346;2023-10-31T09:17:50;8.50;;;5.53;;
33902;SDS011;20194;50.950;5.346;2023-10-31T09:20:15;8.68;;;5.25;;
33902;SDS011;20194;50.950;5.346;2023-10-31T09:22:41;9.77;;;5.32;;
33902;SDS011;20194;50.950;5.346;2023-10-31T09:25:07;14.93;;;6.00;;
33902;SDS011;20194;50.950;5.346;2023-10-31T09:27:32;10.40;;;5.03;;
33902;SDS011;20194;50.950;5.346;2023-10-31T09:29:58;6.93;;;3.95;;
33902;SDS011;20194;50.950;5.346;2023-10-31T09:32:24;10.90;;;5.90;;
33902;SDS011;20194;50.950;5.346;2023-10-31T09:34:50;10.40;;;6.22;;
33902;SDS011;20194;50.950;5.346;2023-10-31T09:37:16;12.63;;;5.15;;
33902;SDS011;20194;50.950;5.346;2023-10-31T09:39:42;11.82;;;5.13;;
33902;SDS011;20194;50.950;5.346;2023-10-31T09:42:08;11.77;;;4.35;;
33902;SDS011;20194;50.950;5.346;2023-10-31T09:44:34;9.23;;;4.25;;
33902;SDS011;20194;50.950;5.346;2023-10-31T09:47:00;8.82;;;3.88;;
33902;SDS011;20194;50.950;5.346;2023-10-31T09:49:26;14.57;;;5.68;;
33902;SDS011;20194;50.950;5.346;2023-10-31T09:51:53;23.75;;;4.40;;
33902;SDS011;20194;50.950;5.346;2023-10-31T09:54:19;8.93;;;3.63;;
33902;SDS011;20194;50.950;5.346;2023-10-31T09:56:46;11.43;;;3.45;;
33902;SDS011;20194;50.950;5.346;2023-10-31T09:59:13;5.70;;;3.22;;
33902;SDS011;20194;50.950;5.346;2023-10-31T10:01:40;11.35;;;2.78;;
33902;SDS011;20194;50.950;5.346;2023-10-31T10:04:07;47.90;;;4.28;;
33902;SDS011;20194;50.950;5.346;2023-10-31T10:06:33;4.03;;;3.15;;
33902;SDS011;20194;50.950;5.346;2023-10-31T10:08:59;6.68;;;3.08;;
33902;SDS011;20194;50.950;5.346;2023-10-31T10:11:25;4.15;;;2.67;;
33902;SDS011;20194;50.950;5.346;2023-10-31T10:13:51;7.13;;;2.35;;
33902;SDS011;20194;50.950;5.346;2023-10-31T10:16:27;7.25;;;2.50;;
33902;SDS011;20194;50.950;5.346;2023-10-31T10:18:55;6.05;;;3.40;;
33902;SDS011;20194;50.950;5.346;2023-10-31T10:21:21;4.95;;;2.50;;
33902;SDS011;20194;50.950;5.346;2023-10-31T10:23:47;8.25;;;2.08;;
33902;SDS011;20194;50.950;5.346;2023-10-31T10:26:16;2.83;;;1.90;;
33902;SDS011;20194;50.950;5.346;2023-10-31T10:28:46;4.13;;;2.20;;
33902;SDS011;20194;50.950;5.346;2023-10-31T10:31:13;2.45;;;1.83;;
33902;SDS011;20194;50.950;5.346;2023-10-31T10:33:40;3.47;;;2.22;;
33902;SDS011;20194;50.950;5.346;2023-10-31T10:36:06;4.40;;;2.38;;
33902;SDS011;20194;50.950;5.346;2023-10-31T10:38:35;5.97;;;2.17;;
33902;SDS011;20194;50.950;5.346;2023-10-31T10:41:02;7.60;;;2.45;;
33902;SDS011;20194;50.950;5.346;2023-10-31T10:43:31;3.83;;;2.03;;
33902;SDS011;20194;50.950;5.346;2023-10-31T10:46:02;6.90;;;2.40;;
33902;SDS011;20194;50.950;5.346;2023-10-31T10:48:30;9.15;;;2.70;;
33902;SDS011;20194;50.950;5.346;2023-10-31T10:51:05;5.65;;;2.20;;
33902;SDS011;20194;50.950;5.346;2023-10-31T10:53:49;10.32;;;2.30;;
33902;SDS011;20194;50.950;5.346;2023-10-31T10:56:26;3.60;;;2.20;;
33902;SDS011;20194;50.950;5.346;2023-10-31T10:58:57;7.13;;;2.20;;
33902;SDS011;20194;50.950;5.346;2023-10-31T11:01:29;4.53;;;2.20;;
33902;SDS011;20194;50.950;5.346;2023-10-31T11:03:56;8.65;;;1.95;;
33902;SDS011;20194;50.950;5.346;2023-10-31T11:06:22;6.70;;;2.10;;
33902;SDS011;20194;50.950;5.346;2023-10-31T11:08:49;7.80;;;2.33;;
33902;SDS011;20194;50.950;5.346;2023-10-31T11:11:17;4.32;;;1.67;;
33902;SDS011;20194;50.950;5.346;2023-10-31T11:13:44;4.38;;;2.13;;
33902;SDS011;20194;50.950;5.346;2023-10-31T11:16:16;2.58;;;1.75;;
33902;SDS011;20194;50.950;5.346;2023-10-31T11:18:49;5.32;;;1.90;;
33902;SDS011;20194;50.950;5.346;2023-10-31T11:21:15;9.57;;;1.98;;
33902;SDS011;20194;50.950;5.346;2023-10-31T11:23:41;2.95;;;2.08;;
33902;SDS011;20194;50.950;5.346;2023-10-31T11:26:07;4.90;;;2.20;;
33902;SDS011;20194;50.950;5.346;2023-10-31T11:28:33;6.78;;;2.40;;
33902;SDS011;20194;50.950;5.346;2023-10-31T11:31:00;5.85;;;2.20;;
33902;SDS011;20194;50.950;5.346;2023-10-31T11:33:28;5.78;;;2.35;;
33902;SDS011;20194;50.950;5.346;2023-10-31T11:36:01;9.70;;;2.22;;
33902;SDS011;20194;50.950;5.346;2023-10-31T11:38:32;5.10;;;2.22;;
33902;SDS011;20194;50.950;5.346;2023-10-31T11:41:01;5.30;;;2.10;;
33902;SDS011;20194;50.950;5.346;2023-10-31T11:46:05;6.82;;;2.20;;
33902;SDS011;20194;50.950;5.346;2023-10-31T11:48:58;6.07;;;1.58;;
33902;SDS011;20194;50.950;5.346;2023-10-31T11:51:25;6.35;;;2.10;;
33902;SDS011;20194;50.950;5.346;2023-10-31T11:53:51;10.82;;;2.63;;
33902;SDS011;20194;50.950;5.346;2023-10-31T11:56:18;5.85;;;2.25;;
33902;SDS011;20194;50.950;5.346;2023-10-31T11:58:44;6.70;;;2.22;;
33902;SDS011;20194;50.950;5.346;2023-10-31T12:01:23;6.60;;;1.95;;
33902;SDS011;20194;50.950;5.346;2023-10-31T12:03:49;8.13;;;2.25;;
33902;SDS011;20194;50.950;5.346;2023-10-31T12:06:16;7.30;;;2.15;;
33902;SDS011;20194;50.950;5.346;2023-10-31T12:08:43;4.82;;;2.50;;
33902;SDS011;20194;50.950;5.346;2023-10-31T12:11:10;4.57;;;1.88;;
33902;SDS011;20194;50.950;5.346;2023-10-31T12:13:37;6.35;;;2.10;;
33902;SDS011;20194;50.950;5.346;2023-10-31T12:16:05;9.75;;;2.08;;
33902;SDS011;20194;50.950;5.346;2023-10-31T12:18:32;7.72;;;1.85;;
33902;SDS011;20194;50.950;5.346;2023-10-31T12:21:00;5.65;;;2.03;;
33902;SDS011;20194;50.950;5.346;2023-10-31T12:23:26;4.45;;;1.67;;
33902;SDS011;20194;50.950;5.346;2023-10-31T12:25:52;4.57;;;1.63;;
33902;SDS011;20194;50.950;5.346;2023-10-31T12:28:21;5.28;;;1.73;;
33902;SDS011;20194;50.950;5.346;2023-10-31T12:30:48;8.52;;;1.70;;
33902;SDS011;20194;50.950;5.346;2023-10-31T12:33:16;6.93;;;2.10;;
33902;SDS011;20194;50.950;5.346;2023-10-31T12:35:43;16.00;;;2.78;;
33902;SDS011;20194;50.950;5.346;2023-10-31T12:38:10;7.75;;;2.60;;
33902;SDS011;20194;50.950;5.346;2023-10-31T12:40:37;6.95;;;2.22;;
33902;SDS011;20194;50.950;5.346;2023-10-31T12:43:03;8.93;;;2.03;;
33902;SDS011;20194;50.950;5.346;2023-10-31T12:45:29;9.68;;;2.22;;
33902;SDS011;20194;50.950;5.346;2023-10-31T12:48:01;6.68;;;2.33;;
33902;SDS011;20194;50.950;5.346;2023-10-31T12:50:29;7.68;;;2.40;;
33902;SDS011;20194;50.950;5.346;2023-10-31T12:52:59;7.03;;;2.40;;
33902;SDS011;20194;50.950;5.346;2023-10-31T12:55:28;7.63;;;2.80;;
33902;SDS011;20194;50.950;5.346;2023-10-31T12:57:56;3.50;;;2.35;;
33902;SDS011;20194;50.950;5.346;2023-10-31T13:00:31;11.02;;;2.55;;
33902;SDS011;20194;50.950;5.346;2023-10-31T13:05:30;6.57;;;2.75;;
33902;SDS011;20194;50.950;5.346;2023-10-31T13:07:57;8.50;;;2.65;;
33902;SDS011;20194;50.950;5.346;2023-10-31T13:10:25;10.60;;;3.85;;
33902;SDS011;20194;50.950;5.346;2023-10-31T13:12:52;7.78;;;2.35;;
33902;SDS011;20194;50.950;5.346;2023-10-31T13:15:19;14.07;;;2.85;;
33902;SDS011;20194;50.950;5.346;2023-10-31T13:17:49;10.27;;;3.22;;
33902;SDS011;20194;50.950;5.346;2023-10-31T13:20:16;9.82;;;2.80;;
33902;SDS011;20194;50.950;5.346;2023-10-31T13:22:43;4.07;;;2.10;;
33902;SDS011;20194;50.950;5.346;2023-10-31T13:25:09;11.00;;;2.35;;
33902;SDS011;20194;50.950;5.346;2023-10-31T13:27:37;5.80;;;2.60;;
33902;SDS011;20194;50.950;5.346;2023-10-31T13:30:05;5.75;;;2.20;;
33902;SDS011;20194;50.950;5.346;2023-10-31T13:32:31;10.07;;;2.30;;
33902;SDS011;20194;50.950;5.346;2023-10-31T13:34:58;5.05;;;2.17;;
33902;SDS011;20194;50.950;5.346;2023-10-31T13:37:24;6.25;;;1.50;;
33902;SDS011;20194;50.950;5.346;2023-10-31T13:39:50;7.05;;;1.85;;
33902;SDS011;20194;50.950;5.346;2023-10-31T13:42:16;7.65;;;2.00;;
33902;SDS011;20194;50.950;5.346;2023-10-31T13:44:42;5.18;;;1.70;;
33902;SDS011;20194;50.950;5.346;2023-10-31T13:47:09;6.03;;;2.60;;
33902;SDS011;20194;50.950;5.346;2023-10-31T13:49:36;4.30;;;1.85;;
33902;SDS011;20194;50.950;5.346;2023-10-31T13:52:02;5.93;;;1.92;;
33902;SDS011;20194;50.950;5.346;2023-10-31T13:54:29;6.57;;;1.90;;
33902;SDS011;20194;50.950;5.346;2023-10-31T13:56:54;3.70;;;2.22;;
33902;SDS011;20194;50.950;5.346;2023-10-31T13:59:20;6.15;;;1.98;;
33902;SDS011;20194;50.950;5.346;2023-10-31T14:01:46;3.85;;;2.17;;
33902;SDS011;20194;50.950;5.346;2023-10-31T14:04:12;6.22;;;2.30;;
33902;SDS011;20194;50.950;5.346;2023-10-31T14:06:39;6.35;;;1.88;;
33902;SDS011;20194;50.950;5.346;2023-10-31T14:09:05;5.15;;;1.83;;
33902;SDS011;20194;50.950;5.346;2023-10-31T14:11:32;4.30;;;1.83;;
33902;SDS011;20194;50.950;5.346;2023-10-31T14:13:59;3.95;;;1.92;;
33902;SDS011;20194;50.950;5.346;2023-10-31T14:16:32;5.57;;;1.77;;
33902;SDS011;20194;50.950;5.346;2023-10-31T14:18:58;2.65;;;1.90;;
33902;SDS011;20194;50.950;5.346;2023-10-31T14:21:23;9.70;;;2.20;;
33902;SDS011;20194;50.950;5.346;2023-10-31T14:23:50;5.05;;;1.80;;
33902;SDS011;20194;50.950;5.346;2023-10-31T14:26:21;6.03;;;1.98;;
33902;SDS011;20194;50.950;5.346;2023-10-31T14:28:48;9.73;;;2.20;;
33902;SDS011;20194;50.950;5.346;2023-10-31T14:31:14;6.53;;;2.08;;
33902;SDS011;20194;50.950;5.346;2023-10-31T14:33:40;4.68;;;1.75;;
33902;SDS011;20194;50.950;5.346;2023-10-31T14:36:06;4.25;;;2.00;;
33902;SDS011;20194;50.950;5.346;2023-10-31T14:38:35;4.80;;;1.90;;
33902;SDS011;20194;50.950;5.346;2023-10-31T14:41:00;7.20;;;1.95;;
33902;SDS011;20194;50.950;5.346;2023-10-31T14:43:26;6.88;;;2.38;;
33902;SDS011;20194;50.950;5.346;2023-10-31T14:45:52;10.73;;;6.00;;